Time;durP1;ratioP1;P1;durP2;ratioP2;P2;SDS_P1;SDS_P2;PMS_P1;PMS_P2;Temp;Humidity;BMP_temperature;BMP_pressure;BME280_temperature;BME280_humidity;BME280_pressure;Samples;Min_cycle;Max_cycle;Signal;HPM_P1;HPM_P2
2024/01/05 00:01:01;;;;;;;4.83;3.00;;;0.70;99.90;;;;;;4988948;28;20556;-52
2024/01/05 00:03:27;;;;;;;4.43;3.30;;;0.70;99.90;;;;;;5008556;28;20266;-48
2024/01/05 00:05:54;;;;;;;6.53;2.60;;;0.70;99.90;;;;;;4972645;28;20267;-49
2024/01/05 00:08:21;;;;;;;4.43;2.80;;;0.70;99.90;;;;;;4999741;28;20255;-51
2024/01/05 00:10:48;;;;;;;3.80;3.03;;;0.70;99.90;;;;;;5000901;28;20221;-52
2024/01/05 00:13:15;;;;;;;4.47;3.27;;;0.70;99.90;;;;;;4988374;28;20206;-49
2024/01/05 00:15:43;;;;;;;5.43;3.67;;;0.70;99.90;;;;;;4988762;28;20735;-46
2024/01/05 00:18:10;;;;;;;3.77;3.37;;;0.70;99.90;;;;;;5003486;28;20200;-50
2024/01/05 00:20:37;;;;;;;5.43;3.20;;;0.70;99.90;;;;;;4973305;28;20272;-46
2024/01/05 00:23:04;;;;;;;4.63;4.00;;;0.70;99.90;;;;;;5002820;28;20211;-54
2024/01/05 00:25:31;;;;;;;4.40;3.43;;;0.70;99.90;;;;;;4998288;28;20289;-49
2024/01/05 00:27:58;;;;;;;3.67;3.23;;;0.70;99.90;;;;;;4989713;28;20201;-50
2024/01/05 00:30:24;;;;;;;4.90;3.67;;;0.70;99.90;;;;;;4996495;28;20204;-47
2024/01/05 00:32:53;;;;;;;4.07;3.67;;;0.70;99.90;;;;;;4996410;28;20259;-49
2024/01/05 00:35:19;;;;;;;4.10;3.70;;;0.70;99.90;;;;;;4998750;28;20224;-50
2024/01/05 00:37:46;;;;;;;5.47;3.87;;;0.70;99.90;;;;;;4977504;28;20208;-48
2024/01/05 00:40:13;;;;;;;4.67;4.20;;;0.80;99.90;;;;;;4987998;28;20236;-49
2024/01/05 00:42:40;;;;;;;4.30;3.60;;;0.70;99.90;;;;;;4993775;28;20208;-51
2024/01/05 00:45:08;;;;;;;5.83;3.33;;;0.70;99.90;;;;;;4991202;28;20253;-50
2024/01/05 00:47:34;;;;;;;5.27;3.53;;;0.70;99.90;;;;;;4990633;28;20578;-48
2024/01/05 00:50:03;;;;;;;6.23;3.90;;;0.70;99.90;;;;;;5001528;28;20235;-52
2024/01/05 00:52:31;;;;;;;6.27;3.70;;;0.80;99.90;;;;;;4970600;28;20209;-48
2024/01/05 00:54:58;;;;;;;4.97;4.47;;;0.80;99.90;;;;;;5001171;28;20689;-51
2024/01/05 00:57:25;;;;;;;5.00;3.90;;;0.80;99.90;;;;;;4998825;28;20258;-50
2024/01/05 00:59:52;;;;;;;6.40;3.50;;;0.80;99.90;;;;;;4981266;28;20215;-47
2024/01/05 01:02:19;;;;;;;4.67;3.47;;;0.80;99.90;;;;;;5003591;28;20197;-49
2024/01/05 01:04:45;;;;;;;8.23;4.07;;;0.80;99.90;;;;;;4993632;28;20224;-46
2024/01/05 01:07:13;;;;;;;5.13;4.63;;;0.80;99.90;;;;;;5000417;28;20249;-50
2024/01/05 01:09:40;;;;;;;4.47;3.50;;;0.70;99.90;;;;;;4963046;28;20205;-50
2024/01/05 01:12:07;;;;;;;3.17;2.87;;;0.70;99.90;;;;;;5006980;28;20195;-48
2024/01/05 01:14:34;;;;;;;4.10;3.70;;;0.70;99.90;;;;;;4990124;28;20228;-51
2024/01/05 01:17:01;;;;;;;4.83;3.97;;;0.70;99.90;;;;;;5005957;28;20200;-47
2024/01/05 01:19:27;;;;;;;6.87;4.13;;;0.70;99.90;;;;;;4993471;28;20358;-51
2024/01/05 01:21:54;;;;;;;5.87;3.93;;;0.80;99.90;;;;;;4997121;28;20275;-48
2024/01/05 01:24:22;;;;;;;4.80;3.50;;;0.70;99.90;;;;;;4969292;28;20593;-47
2024/01/05 01:26:50;;;;;;;4.47;4.00;;;0.80;99.90;;;;;;5008273;28;20203;-45
2024/01/05 01:29:16;;;;;;;3.90;3.60;;;0.80;99.90;;;;;;4988330;28;20198;-45
2024/01/05 01:31:43;;;;;;;5.90;4.10;;;0.80;99.90;;;;;;4997577;28;20200;-48
2024/01/05 01:34:10;;;;;;;4.27;3.63;;;0.80;99.90;;;;;;4991362;28;20221;-50
2024/01/05 01:36:37;;;;;;;3.87;3.57;;;0.80;99.90;;;;;;4992488;28;20197;-50
2024/01/05 01:39:04;;;;;;;5.43;3.30;;;0.80;99.90;;;;;;4970455;28;20213;-52
2024/01/05 01:41:33;;;;;;;4.00;3.60;;;0.80;99.90;;;;;;4997760;28;20201;-47
2024/01/05 01:44:00;;;;;;;4.10;3.60;;;0.90;99.90;;;;;;4996817;28;20915;-49
2024/01/05 01:46:27;;;;;;;6.93;3.60;;;0.80;99.90;;;;;;4989728;28;20191;-49
2024/01/05 01:48:54;;;;;;;7.23;3.90;;;0.80;99.90;;;;;;4985661;28;20303;-47
2024/01/05 01:51:21;;;;;;;5.23;3.67;;;0.80;99.90;;;;;;4997639;28;20204;-48
2024/01/05 01:53:48;;;;;;;8.90;4.13;;;0.80;99.90;;;;;;4999597;28;20195;-48
2024/01/05 01:56:15;;;;;;;4.77;3.97;;;0.80;99.90;;;;;;4987114;28;20204;-48
2024/01/05 01:58:45;;;;;;;5.67;3.90;;;0.80;99.90;;;;;;5000570;28;20258;-50
2024/01/05 02:01:12;;;;;;;4.13;3.73;;;0.90;99.90;;;;;;5002728;28;20283;-48
2024/01/05 02:03:39;;;;;;;6.07;3.60;;;0.80;99.90;;;;;;4998158;28;20282;-46
2024/01/05 02:06:06;;;;;;;4.50;3.70;;;0.80;99.90;;;;;;5005630;28;20282;-52
2024/01/05 02:08:34;;;;;;;4.20;3.80;;;0.80;99.90;;;;;;5002860;28;20668;-49
2024/01/05 02:11:01;;;;;;;4.47;3.77;;;0.80;99.90;;;;;;4988235;28;20222;-48
2024/01/05 02:13:29;;;;;;;6.23;4.67;;;0.80;99.90;;;;;;5004107;28;20196;-49
2024/01/05 02:15:57;;;;;;;8.33;4.93;;;0.90;99.90;;;;;;5000106;28;20221;-47
2024/01/05 02:18:24;;;;;;;5.60;4.10;;;0.90;99.90;;;;;;4997121;28;20810;-48
2024/01/05 02:20:51;;;;;;;5.33;4.17;;;0.90;99.90;;;;;;4995328;28;20228;-51
2024/01/05 02:23:23;;;;;;;5.33;3.87;;;0.90;99.90;;;;;;5009146;28;20273;-51
2024/01/05 02:25:50;;;;;;;4.73;4.00;;;0.90;99.90;;;;;;4972862;28;20228;-51
2024/01/05 02:28:17;;;;;;;8.47;4.57;;;0.90;99.90;;;;;;5012086;28;20824;-51
2024/01/05 02:30:44;;;;;;;6.00;4.87;;;0.90;99.90;;;;;;4995899;28;20185;-49
2024/01/05 02:33:11;;;;;;;5.87;4.13;;;0.90;99.90;;;;;;4999645;28;20220;-49
2024/01/05 02:35:38;;;;;;;6.87;5.07;;;0.90;99.90;;;;;;4999955;28;20758;-49
2024/01/05 02:38:06;;;;;;;5.00;3.63;;;0.90;99.90;;;;;;5002386;28;20208;-46
2024/01/05 02:40:34;;;;;;;6.40;4.60;;;0.90;99.90;;;;;;5000390;28;20220;-52
2024/01/05 02:43:01;;;;;;;6.43;4.67;;;0.90;99.90;;;;;;4972098;28;20740;-46
2024/01/05 02:45:27;;;;;;;7.23;4.30;;;0.90;99.90;;;;;;4992662;28;20212;-49
2024/01/05 02:47:54;;;;;;;6.17;4.47;;;0.90;99.90;;;;;;4991647;28;20197;-47
2024/01/05 02:50:22;;;;;;;6.00;4.80;;;0.90;99.90;;;;;;5002185;28;20192;-47
2024/01/05 02:52:48;;;;;;;6.33;4.50;;;0.90;99.90;;;;;;5000238;28;20224;-47
2024/01/05 02:55:15;;;;;;;4.93;4.40;;;0.90;99.90;;;;;;5004054;28;20215;-46
2024/01/05 02:57:43;;;;;;;5.90;4.73;;;1.00;99.90;;;;;;4971580;28;20575;-48
2024/01/05 03:00:11;;;;;;;7.33;4.50;;;1.00;99.90;;;;;;4992616;28;20308;-46
2024/01/05 03:02:38;;;;;;;5.97;4.57;;;1.00;99.90;;;;;;4993047;28;20665;-47
2024/01/05 03:05:05;;;;;;;5.47;4.90;;;1.00;99.90;;;;;;5001419;28;20252;-46
2024/01/05 03:07:32;;;;;;;6.23;4.73;;;1.00;99.90;;;;;;5003372;28;20188;-48
2024/01/05 03:09:59;;;;;;;8.40;4.40;;;1.00;99.90;;;;;;4999402;28;20734;-45
2024/01/05 03:12:26;;;;;;;5.53;4.37;;;1.00;99.90;;;;;;4968910;28;20208;-47
2024/01/05 03:14:54;;;;;;;6.13;4.70;;;1.00;99.90;;;;;;5000254;28;20216;-46
2024/01/05 03:17:21;;;;;;;5.70;4.23;;;1.00;99.90;;;;;;4999847;28;20913;-47
2024/01/05 03:19:48;;;;;;;7.93;4.73;;;1.00;99.90;;;;;;5000809;28;20216;-49
2024/01/05 03:22:14;;;;;;;6.87;5.00;;;1.00;99.90;;;;;;4997199;28;20215;-49
2024/01/05 03:24:43;;;;;;;6.00;4.83;;;1.00;99.90;;;;;;4995504;28;20286;-52
2024/01/05 03:27:13;;;;;;;5.53;3.93;;;1.00;99.90;;;;;;5002081;28;20227;-50
2024/01/05 03:29:40;;;;;;;5.83;4.70;;;1.00;99.90;;;;;;4979657;28;20200;-47
2024/01/05 03:32:08;;;;;;;6.10;4.57;;;1.00;99.90;;;;;;5000943;28;20200;-49
2024/01/05 03:34:35;;;;;;;5.30;4.50;;;1.10;99.90;;;;;;4996240;28;20223;-48
2024/01/05 03:37:02;;;;;;;5.83;3.97;;;1.00;99.90;;;;;;5002808;28;20207;-48
2024/01/05 03:39:29;;;;;;;5.60;5.07;;;1.00;99.90;;;;;;4995151;28;20283;-48
2024/01/05 03:41:55;;;;;;;8.03;4.80;;;1.10;99.90;;;;;;4985258;28;20220;-49
2024/01/05 03:44:23;;;;;;;6.03;4.23;;;1.10;99.90;;;;;;4972895;28;21752;-47
2024/01/05 03:46:50;;;;;;;8.30;4.53;;;1.10;99.90;;;;;;5006578;28;20204;-49
2024/01/05 03:49:18;;;;;;;12.20;5.10;;;1.10;99.90;;;;;;4990633;28;20204;-47
2024/01/05 03:51:45;;;;;;;6.73;4.90;;;1.10;99.90;;;;;;5002748;28;20676;-47
2024/01/05 03:54:12;;;;;;;8.93;4.70;;;1.10;99.90;;;;;;4996704;28;20216;-49
2024/01/05 03:56:40;;;;;;;10.17;5.00;;;1.10;99.90;;;;;;4991294;28;20199;-49
2024/01/05 03:59:07;;;;;;;6.23;4.17;;;1.10;99.90;;;;;;5006862;28;20200;-46
2024/01/05 04:01:34;;;;;;;7.07;4.80;;;1.10;99.90;;;;;;4977660;28;20231;-47
2024/01/05 04:04:01;;;;;;;6.67;3.93;;;1.10;99.90;;;;;;4997265;28;20231;-48
2024/01/05 04:06:29;;;;;;;8.67;4.33;;;1.10;99.90;;;;;;4998940;28;20450;-47
2024/01/05 04:08:56;;;;;;;5.47;4.60;;;1.10;99.90;;;;;;4995309;28;20208;-46
2024/01/05 04:11:23;;;;;;;5.67;4.43;;;1.10;99.90;;;;;;4993740;28;20201;-49
2024/01/05 04:13:49;;;;;;;8.37;4.20;;;1.10;99.90;;;;;;5002217;28;20232;-48
2024/01/05 04:16:16;;;;;;;7.90;4.33;;;1.10;99.90;;;;;;4969816;28;20207;-51
2024/01/05 04:18:43;;;;;;;5.97;4.63;;;1.10;99.90;;;;;;5001966;28;20718;-49
2024/01/05 04:21:11;;;;;;;4.93;4.23;;;1.10;99.90;;;;;;4989872;28;20247;-50
2024/01/05 04:23:39;;;;;;;5.43;3.80;;;1.10;99.90;;;;;;5000223;28;20197;-48
2024/01/05 04:26:06;;;;;;;5.60;4.23;;;1.10;99.90;;;;;;5001755;28;20197;-46
2024/01/05 04:28:32;;;;;;;7.83;4.47;;;1.10;99.90;;;;;;4985277;28;20208;-46
2024/01/05 04:30:59;;;;;;;6.60;3.80;;;1.10;99.90;;;;;;4969210;28;20207;-50
2024/01/05 04:33:26;;;;;;;7.33;4.63;;;1.10;99.90;;;;;;5002957;28;20200;-48
2024/01/05 04:35:53;;;;;;;6.33;4.57;;;1.10;99.90;;;;;;4985530;28;20216;-46
2024/01/05 04:38:20;;;;;;;5.17;3.90;;;1.10;99.90;;;;;;4999174;28;20673;-47
2024/01/05 04:40:48;;;;;;;6.10;4.50;;;1.00;99.90;;;;;;4999654;28;20209;-46
2024/01/05 04:43:16;;;;;;;9.40;4.73;;;1.00;99.90;;;;;;4992868;28;20225;-47
2024/01/05 04:45:42;;;;;;;9.17;4.87;;;1.00;99.90;;;;;;5002911;28;20767;-47
2024/01/05 04:48:09;;;;;;;9.73;4.67;;;1.00;99.90;;;;;;4976270;28;20603;-48
2024/01/05 04:50:36;;;;;;;10.57;4.03;;;1.00;99.90;;;;;;4995134;28;20277;-47
2024/01/05 04:53:03;;;;;;;6.70;3.93;;;1.00;99.90;;;;;;4985832;28;20199;-49
2024/01/05 04:55:30;;;;;;;6.90;4.77;;;1.00;99.90;;;;;;5001584;28;20212;-48
2024/01/05 04:57:58;;;;;;;6.77;4.00;;;1.00;99.90;;;;;;4990681;28;20200;-50
2024/01/05 05:00:25;;;;;;;4.93;4.37;;;1.00;99.90;;;;;;5002430;28;20201;-49
2024/01/05 05:02:52;;;;;;;7.10;4.63;;;0.90;99.90;;;;;;4970316;28;20251;-48
2024/01/05 05:05:19;;;;;;;6.93;4.63;;;0.90;99.90;;;;;;5001881;28;20938;-51
2024/01/05 05:07:45;;;;;;;6.73;4.70;;;0.90;99.90;;;;;;4996697;28;20213;-49
2024/01/05 05:10:13;;;;;;;6.70;4.57;;;0.90;99.90;;;;;;5001461;28;20204;-49
2024/01/05 05:12:40;;;;;;;6.40;4.13;;;0.90;99.90;;;;;;5002062;28;20203;-46
2024/01/05 05:15:10;;;;;;;6.53;4.83;;;0.90;99.90;;;;;;4987711;28;20228;-47
2024/01/05 05:17:37;;;;;;;7.00;3.83;;;0.90;99.90;;;;;;4959000;28;20228;-46
2024/01/05 05:20:04;;;;;;;6.37;4.50;;;0.90;99.90;;;;;;4991052;28;20564;-49
2024/01/05 05:22:30;;;;;;;6.90;4.93;;;0.90;99.90;;;;;;4992059;28;20192;-48
2024/01/05 05:24:57;;;;;;;6.53;4.43;;;0.90;99.90;;;;;;4994651;28;20290;-46
2024/01/05 05:27:24;;;;;;;7.00;4.90;;;0.90;99.90;;;;;;5003499;28;20258;-48
2024/01/05 05:29:51;;;;;;;6.77;3.97;;;0.90;99.90;;;;;;4997800;28;20208;-48
2024/01/05 05:32:19;;;;;;;5.03;3.83;;;0.90;99.90;;;;;;4979012;28;20200;-47
2024/01/05 05:34:46;;;;;;;7.93;4.50;;;0.90;99.90;;;;;;4988228;28;20213;-51
2024/01/05 05:37:13;;;;;;;4.17;3.73;;;0.90;99.90;;;;;;4997186;28;20210;-46
2024/01/05 05:39:40;;;;;;;5.77;4.40;;;0.90;99.90;;;;;;4989376;28;20213;-49
2024/01/05 05:42:06;;;;;;;6.03;3.67;;;0.90;99.90;;;;;;5014432;28;20215;-49
2024/01/05 05:44:33;;;;;;;7.63;4.37;;;0.90;99.90;;;;;;4994437;28;20318;-50
2024/01/05 05:47:00;;;;;;;5.97;3.73;;;0.90;99.90;;;;;;5003094;28;20855;-49
2024/01/05 05:49:28;;;;;;;6.73;4.20;;;0.90;99.90;;;;;;4969151;28;20266;-52
2024/01/05 05:51:55;;;;;;;5.43;4.03;;;0.90;99.90;;;;;;5005575;28;20725;-50
2024/01/05 05:54:22;;;;;;;6.13;3.87;;;0.90;99.90;;;;;;4991570;28;20231;-48
2024/01/05 05:56:49;;;;;;;7.10;4.53;;;0.80;99.90;;;;;;5010273;28;20564;-48
2024/01/05 05:59:16;;;;;;;4.77;3.57;;;0.80;99.90;;;;;;4996268;28;20282;-47
2024/01/05 06:01:44;;;;;;;6.17;3.60;;;0.80;99.90;;;;;;4993670;28;20247;-49
2024/01/05 06:04:13;;;;;;;5.37;4.07;;;0.80;99.90;;;;;;4977524;28;20224;-48
2024/01/05 06:06:41;;;;;;;4.33;3.90;;;0.80;99.90;;;;;;5003526;28;21010;-49
2024/01/05 06:09:08;;;;;;;4.43;3.73;;;0.80;99.90;;;;;;4998397;28;20204;-48
2024/01/05 06:11:35;;;;;;;6.80;4.40;;;0.90;99.90;;;;;;4990662;28;20251;-48
2024/01/05 06:14:04;;;;;;;5.60;4.13;;;0.80;99.90;;;;;;4999882;28;20920;-49
2024/01/05 06:16:31;;;;;;;6.37;3.97;;;0.80;99.90;;;;;;4997072;28;20184;-51
2024/01/05 06:18:57;;;;;;;7.37;3.90;;;0.80;99.90;;;;;;4976938;28;20294;-48
2024/01/05 06:21:25;;;;;;;5.00;3.60;;;0.80;99.90;;;;;;5002782;28;20220;-48
2024/01/05 06:23:53;;;;;;;6.47;4.07;;;0.80;99.90;;;;;;5007036;28;20620;-52
2024/01/05 06:26:20;;;;;;;4.77;3.50;;;0.80;99.90;;;;;;4987050;28;20204;-50
2024/01/05 06:28:47;;;;;;;7.17;3.83;;;0.80;99.90;;;;;;4998470;28;20216;-51
2024/01/05 06:31:15;;;;;;;4.97;4.10;;;0.80;99.90;;;;;;5006129;28;20754;-46
2024/01/05 06:33:42;;;;;;;4.40;3.90;;;0.80;99.90;;;;;;4998692;28;20216;-48
2024/01/05 06:36:08;;;;;;;6.40;3.93;;;0.90;99.90;;;;;;4976491;28;20695;-48
2024/01/05 06:38:35;;;;;;;4.07;3.30;;;0.80;99.90;;;;;;5007958;28;20192;-48
2024/01/05 06:41:04;;;;;;;5.80;3.80;;;0.90;99.90;;;;;;4991789;28;20240;-50
2024/01/05 06:43:31;;;;;;;5.50;4.00;;;0.80;99.90;;;;;;4991957;28;20196;-52
2024/01/05 06:45:57;;;;;;;6.20;3.83;;;0.80;99.90;;;;;;5011216;28;20216;-50
2024/01/05 06:48:24;;;;;;;6.07;3.90;;;0.80;99.90;;;;;;4996702;28;20200;-48
2024/01/05 06:50:51;;;;;;;6.10;4.00;;;0.80;99.90;;;;;;4975586;28;20729;-50
2024/01/05 06:53:18;;;;;;;4.73;4.23;;;0.80;99.90;;;;;;5000966;28;20670;-50
2024/01/05 06:55:45;;;;;;;4.10;3.37;;;0.80;99.90;;;;;;4995516;28;20245;-48
2024/01/05 06:58:13;;;;;;;4.70;3.33;;;0.80;99.90;;;;;;5003262;28;20608;-49
2024/01/05 07:00:40;;;;;;;6.32;5.10;;;0.80;99.90;;;;;;5003760;28;21006;-49
2024/01/05 07:03:07;;;;;;;4.83;4.03;;;1.00;99.90;;;;;;4997985;28;20732;-49
2024/01/05 07:05:33;;;;;;;6.73;3.27;;;1.00;99.90;;;;;;4975549;28;20307;-52
2024/01/05 07:08:00;;;;;;;5.03;4.03;;;0.90;99.90;;;;;;4999140;28;20274;-48
2024/01/05 07:10:27;;;;;;;6.03;3.90;;;0.80;99.90;;;;;;4996704;28;20205;-49
2024/01/05 07:12:55;;;;;;;5.43;4.33;;;0.80;99.90;;;;;;4998213;28;20224;-50
2024/01/05 07:15:23;;;;;;;3.80;3.43;;;0.90;99.90;;;;;;5000690;28;20563;-46
2024/01/05 07:17:50;;;;;;;4.53;3.60;;;0.80;99.90;;;;;;5005053;28;20207;-49
2024/01/05 07:20:17;;;;;;;4.90;3.57;;;0.80;99.90;;;;;;4994501;28;20263;-47
2024/01/05 07:22:44;;;;;;;4.77;3.67;;;0.80;99.90;;;;;;4972939;28;20338;-48
2024/01/05 07:25:11;;;;;;;4.70;3.40;;;0.80;99.90;;;;;;5004570;28;20218;-49
2024/01/05 07:27:38;;;;;;;3.50;3.20;;;0.80;99.90;;;;;;4994821;28;20244;-50
2024/01/05 07:30:06;;;;;;;3.97;3.47;;;0.80;99.90;;;;;;5007860;28;20296;-51
2024/01/05 07:32:34;;;;;;;3.67;3.00;;;0.80;99.90;;;;;;5004444;28;20350;-49
2024/01/05 07:35:03;;;;;;;5.40;3.40;;;0.80;99.90;;;;;;4994602;28;20282;-52
2024/01/05 07:37:30;;;;;;;3.80;3.33;;;0.80;99.90;;;;;;4971036;28;20196;-48
2024/01/05 07:39:57;;;;;;;3.93;2.90;;;0.80;99.90;;;;;;5009060;28;20201;-50
2024/01/05 07:42:27;;;;;;;5.63;3.80;;;0.70;99.90;;;;;;5005715;28;20327;-47
2024/01/05 07:44:54;;;;;;;4.43;3.33;;;0.80;99.90;;;;;;4996334;28;20724;-49
2024/01/05 07:47:21;;;;;;;3.57;3.20;;;0.70;99.90;;;;;;5005026;28;20195;-47
2024/01/05 07:49:49;;;;;;;5.13;3.30;;;0.80;99.90;;;;;;4998771;28;20191;-48
2024/01/05 07:52:18;;;;;;;3.70;3.13;;;0.70;99.90;;;;;;4963668;28;20225;-46
2024/01/05 07:54:44;;;;;;;4.83;3.07;;;0.70;99.90;;;;;;5006130;28;20271;-49
2024/01/05 07:57:11;;;;;;;2.83;2.53;;;0.80;99.90;;;;;;5013560;28;20661;-47
2024/01/05 07:59:38;;;;;;;7.10;3.30;;;0.70;99.90;;;;;;4996637;28;20220;-50
2024/01/05 08:02:05;;;;;;;3.07;2.77;;;0.70;99.90;;;;;;5002393;28;20283;-49
2024/01/05 08:04:32;;;;;;;3.40;3.10;;;0.70;99.90;;;;;;4992357;28;20371;-49
2024/01/05 08:07:00;;;;;;;3.60;2.93;;;0.70;99.90;;;;;;4993137;28;20208;-48
2024/01/05 08:09:27;;;;;;;6.13;3.40;;;0.70;99.90;;;;;;4979519;28;20224;-49
2024/01/05 08:11:54;;;;;;;7.27;3.43;;;0.70;99.90;;;;;;4997013;28;20204;-49
2024/01/05 08:14:21;;;;;;;6.27;3.00;;;0.70;99.90;;;;;;4998983;28;20208;-52
2024/01/05 08:16:48;;;;;;;4.43;2.93;;;0.70;99.90;;;;;;4990867;28;20599;-48
2024/01/05 08:19:14;;;;;;;3.33;3.00;;;0.70;99.90;;;;;;4985446;28;20215;-49
2024/01/05 08:21:41;;;;;;;3.03;2.73;;;0.70;99.90;;;;;;4983331;28;20203;-48
2024/01/05 08:24:10;;;;;;;4.07;3.00;;;0.70;99.90;;;;;;4978141;28;20601;-49
2024/01/05 08:26:37;;;;;;;5.97;3.27;;;0.70;99.90;;;;;;4988556;28;20883;-52
2024/01/05 08:29:04;;;;;;;3.87;3.30;;;0.70;99.90;;;;;;5005519;28;20233;-47
2024/01/05 08:31:31;;;;;;;3.53;2.97;;;0.70;99.90;;;;;;4982066;28;20205;-48
2024/01/05 08:33:58;;;;;;;3.60;3.00;;;0.70;99.90;;;;;;4998223;28;21615;-47
2024/01/05 08:36:25;;;;;;;2.90;2.60;;;0.70;99.90;;;;;;4992088;28;20554;-48
2024/01/05 08:38:52;;;;;;;4.47;3.00;;;0.70;99.90;;;;;;4972333;28;20227;-47
2024/01/05 08:41:21;;;;;;;4.00;2.93;;;0.70;99.90;;;;;;4992629;28;20306;-46
2024/01/05 08:43:47;;;;;;;4.40;2.73;;;0.70;99.90;;;;;;4998893;28;20199;-48
2024/01/05 08:46:14;;;;;;;3.60;2.77;;;0.70;99.90;;;;;;4988004;28;20248;-51
2024/01/05 08:48:44;;;;;;;3.80;2.93;;;0.60;99.90;;;;;;5000990;28;21108;-48
2024/01/05 08:51:10;;;;;;;3.20;2.30;;;0.60;99.90;;;;;;4996761;28;20205;-52
2024/01/05 08:53:37;;;;;;;3.77;3.00;;;0.60;99.90;;;;;;4969083;28;20210;-49
2024/01/05 08:56:04;;;;;;;3.30;2.70;;;0.70;99.90;;;;;;5011646;28;20222;-50
2024/01/05 08:58:33;;;;;;;3.20;2.90;;;0.70;99.90;;;;;;4980834;28;20200;-45
2024/01/05 09:01:00;;;;;;;3.20;2.90;;;0.70;99.90;;;;;;4986805;28;20200;-48
2024/01/05 09:03:27;;;;;;;3.03;2.73;;;0.70;99.90;;;;;;5007501;28;20715;-50
2024/01/05 09:05:53;;;;;;;3.17;2.70;;;0.70;99.90;;;;;;5002611;28;20250;-50
2024/01/05 09:08:20;;;;;;;5.57;2.73;;;0.70;99.90;;;;;;4986601;28;20557;-49
2024/01/05 09:10:47;;;;;;;3.77;2.07;;;0.70;99.90;;;;;;4994746;28;20214;-47
2024/01/05 09:13:14;;;;;;;3.03;2.73;;;0.70;99.90;;;;;;4991498;28;20717;-48
2024/01/05 09:15:42;;;;;;;3.07;2.27;;;0.60;99.90;;;;;;5001002;28;20204;-51
2024/01/05 09:18:09;;;;;;;2.57;2.10;;;0.70;99.90;;;;;;5005500;28;20269;-48
2024/01/05 09:20:37;;;;;;;3.47;2.70;;;0.70;99.90;;;;;;5005474;28;20790;-49
2024/01/05 09:23:06;;;;;;;2.20;2.00;;;0.70;99.90;;;;;;4991790;28;20229;-47
2024/01/05 09:25:33;;;;;;;2.43;2.23;;;0.70;99.90;;;;;;4976444;28;20844;-49
2024/01/05 09:28:01;;;;;;;2.70;2.37;;;0.70;99.90;;;;;;4990814;28;20319;-49
2024/01/05 09:30:28;;;;;;;3.20;2.50;;;0.70;99.90;;;;;;4999418;28;20199;-49
2024/01/05 09:32:58;;;;;;;1.93;1.73;;;0.60;99.90;;;;;;4996179;28;20715;-51
2024/01/05 09:35:25;;;;;;;4.90;2.23;;;0.70;99.90;;;;;;4994290;28;20343;-51
2024/01/05 09:37:53;;;;;;;2.40;2.20;;;0.70;99.90;;;;;;5012655;28;20208;-46
2024/01/05 09:40:21;;;;;;;1.90;1.73;;;0.70;99.90;;;;;;4961880;28;20335;-50
2024/01/05 09:42:50;;;;;;;2.50;1.90;;;0.70;99.90;;;;;;4993782;28;20231;-48
2024/01/05 09:45:21;;;;;;;2.20;2.00;;;0.70;99.90;;;;;;5004197;28;20219;-51
2024/01/05 09:47:49;;;;;;;3.10;2.20;;;0.70;99.90;;;;;;4995925;28;20201;-48
2024/01/05 09:50:17;;;;;;;2.63;2.17;;;0.60;99.90;;;;;;5002387;28;20196;-51
2024/01/05 09:52:44;;;;;;;2.20;1.80;;;0.60;99.90;;;;;;5002304;28;20200;-49
2024/01/05 09:55:11;;;;;;;2.10;1.97;;;0.70;99.90;;;;;;4982144;28;20305;-51
2024/01/05 09:57:40;;;;;;;2.47;1.73;;;0.70;99.90;;;;;;4961319;28;20223;-46
2024/01/05 10:00:12;;;;;;;3.17;2.00;;;0.70;99.90;;;;;;5000242;28;20246;-46
2024/01/05 10:02:44;;;;;;;2.03;1.73;;;0.70;99.90;;;;;;4988221;28;20353;-48
2024/01/05 10:05:11;;;;;;;3.40;1.80;;;0.70;99.90;;;;;;4993154;28;20229;-46
2024/01/05 10:07:44;;;;;;;3.07;2.03;;;0.60;99.90;;;;;;5003402;28;20203;-48
2024/01/05 10:10:12;;;;;;;3.17;1.90;;;0.60;99.90;;;;;;4984442;28;21542;-50
2024/01/05 10:12:40;;;;;;;1.50;1.40;;;0.60;99.90;;;;;;4975653;28;20223;-50
2024/01/05 10:15:07;;;;;;;1.90;1.60;;;0.60;99.90;;;;;;4991532;28;20248;-46
2024/01/05 10:17:35;;;;;;;3.00;1.70;;;0.60;99.90;;;;;;4992283;28;20608;-49
2024/01/05 10:20:20;;;;;;;3.57;1.80;;;0.60;99.90;;;;;;4991640;28;20627;-48
2024/01/05 10:22:48;;;;;;;1.57;1.47;;;0.60;99.90;;;;;;4994510;28;20303;-46
2024/01/05 10:25:17;;;;;;;1.80;1.40;;;0.60;99.90;;;;;;4990092;28;20256;-51
2024/01/05 10:27:44;;;;;;;3.10;1.73;;;0.60;99.90;;;;;;4971492;28;20215;-48
2024/01/05 10:30:24;;;;;;;2.27;1.60;;;0.60;99.90;;;;;;4992984;28;20911;-47
2024/01/05 10:33:03;;;;;;;1.83;1.63;;;0.60;99.90;;;;;;5001408;28;20287;-50
2024/01/05 10:35:31;;;;;;;2.03;1.83;;;0.60;99.90;;;;;;4988006;28;20290;-49
2024/01/05 10:38:06;;;;;;;2.73;1.70;;;0.60;99.90;;;;;;4999097;28;20196;-48
2024/01/05 10:40:33;;;;;;;1.83;1.63;;;0.60;99.90;;;;;;4996918;28;20200;-47
2024/01/05 10:43:10;;;;;;;2.90;2.00;;;0.60;99.90;;;;;;4972470;28;20745;-49
2024/01/05 10:45:39;;;;;;;1.50;1.40;;;0.60;99.90;;;;;;4996490;28;20226;-49
2024/01/05 10:48:08;;;;;;;1.70;1.60;;;0.60;99.90;;;;;;4990077;28;20320;-46
2024/01/05 10:50:37;;;;;;;1.57;1.47;;;0.60;99.90;;;;;;4986362;28;20200;-50
2024/01/05 10:53:08;;;;;;;2.27;2.03;;;0.60;99.90;;;;;;4999109;28;20274;-46
2024/01/05 10:55:35;;;;;;;2.20;1.77;;;0.50;99.90;;;;;;4996929;28;20232;-47
2024/01/05 10:58:02;;;;;;;2.13;1.67;;;0.50;99.90;;;;;;4981849;28;20205;-48
2024/01/05 11:00:29;;;;;;;1.97;1.60;;;0.50;99.90;;;;;;4985001;28;20216;-47
2024/01/05 11:03:09;;;;;;;1.93;1.70;;;0.50;99.90;;;;;;4989110;28;20242;-48
2024/01/05 11:05:39;;;;;;;1.83;1.50;;;0.50;99.90;;;;;;4984663;28;20223;-49
2024/01/05 11:08:16;;;;;;;4.47;1.90;;;0.50;99.90;;;;;;5001171;28;20212;-47
2024/01/05 11:10:50;;;;;;;2.77;1.73;;;0.50;99.90;;;;;;5002936;28;20281;-48
2024/01/05 11:13:36;;;;;;;1.77;1.50;;;0.50;99.90;;;;;;4992508;28;20868;-48
2024/01/05 11:16:25;;;;;;;1.60;1.50;;;0.50;99.90;;;;;;4960088;28;20278;-47
2024/01/05 11:19:17;;;;;;;1.67;1.50;;;0.50;99.90;;;;;;4988306;28;20199;-48
2024/01/05 11:21:49;;;;;;;1.60;1.50;;;0.50;99.90;;;;;;4991217;28;20294;-47
2024/01/05 11:24:19;;;;;;;1.90;1.67;;;0.50;99.90;;;;;;4995675;28;20274;-48
2024/01/05 11:26:45;;;;;;;1.50;1.40;;;0.50;99.90;;;;;;4989265;28;20695;-50
2024/01/05 11:29:13;;;;;;;1.70;1.60;;;0.40;99.90;;;;;;4990743;28;20581;-48
2024/01/05 11:31:55;;;;;;;2.67;1.40;;;0.50;99.90;;;;;;4955102;28;20566;-48
2024/01/05 11:34:34;;;;;;;2.97;2.20;;;0.60;99.90;;;;;;4992144;28;20234;-47
2024/01/05 11:37:02;;;;;;;0.90;0.90;;;0.50;99.90;;;;;;4990524;28;20205;-48
2024/01/05 11:39:45;;;;;;;2.90;1.90;;;0.60;99.90;;;;;;5001189;28;20211;-46
2024/01/05 11:42:31;;;;;;;2.63;1.60;;;0.50;99.90;;;;;;4999567;28;20199;-48
2024/01/05 11:44:59;;;;;;;2.03;1.57;;;0.50;99.90;;;;;;4978471;28;20209;-49
2024/01/05 11:47:45;;;;;;;1.60;1.50;;;0.50;99.90;;;;;;4958073;28;20216;-48
2024/01/05 11:50:30;;;;;;;3.33;1.70;;;0.60;99.90;;;;;;4992697;28;20203;-46
2024/01/05 11:53:08;;;;;;;2.20;1.60;;;0.60;99.90;;;;;;4992057;28;20193;-47
2024/01/05 11:55:40;;;;;;;2.10;1.40;;;0.50;99.90;;;;;;4996935;28;20359;-47
2024/01/05 11:58:08;;;;;;;1.67;1.57;;;0.50;99.90;;;;;;4994824;28;20214;-48
2024/01/05 12:00:35;;;;;;;2.10;1.57;;;0.50;99.90;;;;;;4973798;28;20257;-49
2024/01/05 12:03:02;;;;;;;1.37;1.27;;;0.50;99.90;;;;;;4981426;28;20211;-48
2024/01/05 12:05:29;;;;;;;1.40;1.20;;;0.50;99.90;;;;;;4996421;28;20652;-49
2024/01/05 12:07:57;;;;;;;2.53;1.23;;;0.40;99.90;;;;;;4990269;28;20278;-52
2024/01/05 12:10:25;;;;;;;1.50;1.40;;;0.50;99.90;;;;;;5001936;28;20194;-46
2024/01/05 12:12:53;;;;;;;1.63;1.33;;;0.50;99.90;;;;;;4991301;28;20203;-48
2024/01/05 12:15:21;;;;;;;2.10;1.30;;;0.50;99.90;;;;;;4988834;28;20301;-47
2024/01/05 12:17:48;;;;;;;1.50;1.40;;;0.50;99.90;;;;;;4956967;28;20744;-50
2024/01/05 12:20:16;;;;;;;2.63;1.70;;;0.50;99.90;;;;;;4994261;28;20767;-47
2024/01/05 12:22:43;;;;;;;2.37;1.33;;;0.50;99.90;;;;;;4993962;28;20224;-49
2024/01/05 12:25:11;;;;;;;1.50;1.40;;;0.50;99.90;;;;;;5000915;28;20236;-48
2024/01/05 12:27:38;;;;;;;2.23;1.33;;;0.50;99.90;;;;;;4989458;28;20303;-48
2024/01/05 12:30:09;;;;;;;2.00;1.60;;;0.50;99.90;;;;;;4989648;28;20314;-49
2024/01/05 12:32:37;;;;;;;1.97;1.73;;;0.40;99.90;;;;;;4966804;28;20300;-47
2024/01/05 12:35:06;;;;;;;1.60;1.50;;;0.50;99.90;;;;;;4989927;28;20246;-48
2024/01/05 12:37:34;;;;;;;2.10;1.60;;;0.40;99.90;;;;;;5006419;28;20223;-48
2024/01/05 12:40:10;;;;;;;2.03;1.73;;;0.40;99.90;;;;;;4976911;28;20235;-47
2024/01/05 12:42:38;;;;;;;2.43;1.70;;;0.50;99.90;;;;;;4993369;28;21083;-47
2024/01/05 12:45:08;;;;;;;1.87;1.37;;;0.40;99.90;;;;;;5001897;28;20247;-48
2024/01/05 12:47:35;;;;;;;1.70;1.43;;;0.40;99.90;;;;;;4959970;28;20216;-46
2024/01/05 12:50:03;;;;;;;1.50;1.40;;;0.40;99.90;;;;;;4999187;28;20195;-47
2024/01/05 12:52:33;;;;;;;2.30;2.13;;;0.40;99.90;;;;;;4999029;28;20213;-47
2024/01/05 12:55:00;;;;;;;2.37;1.80;;;0.40;99.90;;;;;;4983638;28;20234;-47
2024/01/05 12:57:28;;;;;;;1.70;1.60;;;0.40;99.90;;;;;;4990892;28;20220;-47
2024/01/05 13:00:00;;;;;;;2.60;1.60;;;0.40;99.90;;;;;;4985086;28;20290;-48
2024/01/05 13:02:29;;;;;;;1.93;1.60;;;0.40;99.90;;;;;;4964412;28;20208;-49